Time;durP1;ratioP1;P1;durP2;ratioP2;P2;SDS_P1;SDS_P2;PMS_P1;PMS_P2;Temp;Humidity;BMP_temperature;BMP_pressure;BME280_temperature;BME280_humidity;BME280_pressure;Samples;Min_cycle;Max_cycle;Signal;HPM_P1;HPM_P2
2022/05/31 00:00:23;;;;;;;4.15;2.67;;;;;;;14.77;56.91;101139.63;4946780;28;119907;-81
2022/05/31 00:02:51;;;;;;;5.15;2.63;;;;;;;14.76;57.36;101138.09;4943330;28;119578;-83
2022/05/31 00:05:17;;;;;;;4.75;2.65;;;;;;;14.73;57.62;101146.06;4965022;28;120668;-81
2022/05/31 00:07:43;;;;;;;4.30;2.63;;;;;;;14.69;57.24;101139.97;4978936;28;119955;-80
2022/05/31 00:10:13;;;;;;;4.80;2.70;;;;;;;14.65;57.57;101136.59;4964867;28;119083;-79
2022/05/31 00:12:39;;;;;;;5.72;3.15;;;;;;;14.65;57.83;101138.59;4931098;28;119958;-81
2022/05/31 00:15:07;;;;;;;5.38;3.10;;;;;;;14.65;57.42;101138.59;4965540;28;119153;-79
2022/05/31 00:17:33;;;;;;;6.47;2.90;;;;;;;14.57;57.46;101124.34;4969941;28;120543;-81
2022/05/31 00:19:59;;;;;;;4.88;2.80;;;;;;;14.62;57.40;101132.00;4960660;28;119735;-83
2022/05/31 00:22:28;;;;;;;4.07;2.78;;;;;;;14.60;57.03;101140.00;4965235;28;119540;-82
2022/05/31 00:24:54;;;;;;;5.43;3.03;;;;;;;14.59;57.73;101134.94;4962860;28;119213;-81
2022/05/31 00:27:22;;;;;;;5.18;3.25;;;;;;;14.58;57.46;101136.94;4964756;28;119787;-81
2022/05/31 00:29:48;;;;;;;8.23;3.40;;;;;;;14.55;57.61;101139.88;4942971;28;119437;-82
2022/05/31 00:32:18;;;;;;;5.57;3.35;;;;;;;14.49;57.80;101134.22;4956292;28;119277;-79
2022/05/31 00:34:46;;;;;;;4.55;2.85;;;;;;;14.51;57.73;101140.03;4963898;28;119226;-81
2022/05/31 00:37:13;;;;;;;4.13;2.90;;;;;;;14.43;57.34;101128.56;4948404;28;119539;-81
2022/05/31 00:39:39;;;;;;;5.25;3.20;;;;;;;14.45;57.56;101130.88;4964555;28;119889;-83
2022/05/31 00:42:08;;;;;;;4.60;3.05;;;;;;;14.46;57.67;101132.41;4947560;28;120351;-81
2022/05/31 00:44:35;;;;;;;7.20;3.53;;;;;;;14.43;57.42;101134.09;4949167;28;119235;-82
2022/05/31 00:47:24;;;;;;;4.13;3.30;;;;;;;14.41;57.48;101136.50;4948788;28;119332;-83
2022/05/31 00:50:10;;;;;;;5.82;3.40;;;;;;;14.38;57.39;101131.16;4947770;28;119582;-81
2022/05/31 00:52:48;;;;;;;6.43;3.42;;;;;;;14.36;57.87;101128.84;4965305;28;119266;-82
2022/05/31 00:55:20;;;;;;;6.07;3.70;;;;;;;14.34;57.42;101136.06;4958726;28;119179;-83
2022/05/31 00:58:06;;;;;;;7.45;3.63;;;;;;;14.30;58.09;101127.97;4943747;28;119797;-81
2022/05/31 01:00:31;;;;;;;7.35;3.30;;;;;;;14.29;58.31;101139.47;4914039;28;119588;-81
2022/05/31 01:02:58;;;;;;;6.88;3.70;;;;;;;14.25;57.59;101138.88;4914517;28;121203;-82
2022/05/31 01:05:26;;;;;;;6.28;3.63;;;;;;;14.20;57.87;101136.75;4964020;28;119346;-82
2022/05/31 01:07:53;;;;;;;8.15;3.92;;;;;;;14.10;57.40;101133.22;4961891;28;119791;-83
2022/05/31 01:10:19;;;;;;;7.53;4.00;;;;;;;14.07;57.89;101132.16;4946728;28;119802;-82
2022/05/31 01:13:05;;;;;;;5.70;3.47;;;;;;;14.02;58.02;101130.03;4959668;28;119189;-81
2022/05/31 01:15:50;;;;;;;4.68;3.47;;;;;;;14.00;58.34;101140.00;4942688;28;119932;-80
2022/05/31 01:18:37;;;;;;;6.45;4.00;;;;;;;13.94;58.02;101134.31;4958072;28;119194;-78
2022/05/31 01:21:22;;;;;;;5.07;3.72;;;;;;;13.89;57.96;101134.94;4957701;28;119161;-79
2022/05/31 01:24:13;;;;;;;5.40;3.80;;;;;;;13.85;58.15;101139.88;4940567;28;119297;-80
2022/05/31 01:26:52;;;;;;;5.35;3.45;;;;;;;13.82;58.76;101135.28;4947791;28;119492;-78
2022/05/31 01:29:25;;;;;;;5.55;3.60;;;;;;;13.79;58.27;101144.47;4930447;28;120881;-81
2022/05/31 01:32:02;;;;;;;5.63;3.80;;;;;;;13.74;58.00;101145.09;4956178;28;119558;-78
2022/05/31 01:34:40;;;;;;;6.03;3.83;;;;;;;13.69;58.05;101142.94;4944758;28;119371;-79
2022/05/31 01:37:07;;;;;;;4.78;3.63;;;;;;;13.63;57.89;101139.28;4939733;28;119240;-79
2022/05/31 01:39:42;;;;;;;6.47;4.05;;;;;;;13.56;58.20;101139.59;4957110;28;119509;-79
2022/05/31 01:42:29;;;;;;;8.18;3.90;;;;;;;13.54;58.57;101139.28;4938721;28;119402;-78
2022/05/31 01:45:10;;;;;;;5.80;3.90;;;;;;;13.50;58.76;101137.44;4938318;28;121091;-79
2022/05/31 01:47:36;;;;;;;6.15;3.88;;;;;;;13.48;58.88;101148.13;4939864;28;119530;-79
2022/05/31 01:50:05;;;;;;;5.80;4.30;;;;;;;13.47;59.14;101146.59;4942442;28;119359;-79
2022/05/31 01:52:33;;;;;;;6.50;4.60;;;;;;;13.46;58.94;101147.06;4955212;28;119426;-79
2022/05/31 01:54:59;;;;;;;5.43;4.20;;;;;;;13.44;59.62;101149.53;4955098;28;119222;-79
2022/05/31 01:57:27;;;;;;;6.45;4.60;;;;;;;13.36;59.25;101129.78;4938474;28;119302;-79
2022/05/31 02:00:00;;;;;;;6.65;4.20;;;;;;;13.34;59.40;101134.97;4929438;28;119748;-79
2022/05/31 02:02:26;;;;;;;8.77;5.05;;;;;;;13.39;59.83;101139.88;4922092;28;120224;-79
2022/05/31 02:04:54;;;;;;;5.63;4.60;;;;;;;13.31;59.64;101135.91;4952824;28;119391;-79
2022/05/31 02:07:26;;;;;;;8.23;5.35;;;;;;;13.39;59.85;101134.38;4921761;28;119240;-79
2022/05/31 02:09:53;;;;;;;7.57;5.38;;;;;;;13.37;59.89;101139.56;4941725;28;119610;-79
2022/05/31 02:12:27;;;;;;;6.57;5.20;;;;;;;13.37;59.83;101138.81;4921409;28;119312;-79
2022/05/31 02:15:24;;;;;;;9.45;5.13;;;;;;;13.36;59.38;101138.03;4881871;28;119821;-79
2022/05/31 02:18:18;;;;;;;6.47;4.95;;;;;;;13.34;59.62;101139.72;4864950;28;119848;-79
2022/05/31 02:20:53;;;;;;;6.82;4.72;;;;;;;13.21;59.42;101112.31;4942629;28;119914;-79
2022/05/31 02:23:18;;;;;;;6.40;4.88;;;;;;;13.30;59.27;101130.84;4918949;28;119719;-79
2022/05/31 02:25:44;;;;;;;7.32;5.15;;;;;;;13.29;59.67;101126.56;4939057;28;119915;-78
2022/05/31 02:28:10;;;;;;;7.10;4.80;;;;;;;13.27;59.60;101126.25;4938412;28;119559;-79
2022/05/31 02:30:39;;;;;;;10.55;5.47;;;;;;;13.23;59.46;101126.38;4937582;28;119372;-79
2022/05/31 02:33:04;;;;;;;6.85;5.22;;;;;;;13.20;59.64;101124.56;4928662;28;119263;-79
2022/05/31 02:35:30;;;;;;;7.15;5.57;;;;;;;13.21;59.80;101128.84;4954074;28;118449;-79
2022/05/31 02:37:56;;;;;;;12.23;6.15;;;;;;;13.18;59.79;101135.25;4937820;28;119263;-78
2022/05/31 02:40:22;;;;;;;8.13;5.55;;;;;;;13.20;59.95;101136.34;4955542;28;119902;-79
2022/05/31 02:42:47;;;;;;;8.50;5.65;;;;;;;13.18;60.18;101135.25;4935893;28;119294;-78
2022/05/31 02:45:14;;;;;;;8.30;5.88;;;;;;;13.17;60.29;101130.94;4934157;28;120442;-79
2022/05/31 02:47:41;;;;;;;9.05;6.50;;;;;;;13.16;60.61;101129.41;4902511;28;120192;-79
2022/05/31 02:50:09;;;;;;;8.13;6.55;;;;;;;13.21;60.34;101137.88;4932909;28;120182;-78
2022/05/31 02:52:35;;;;;;;7.57;6.00;;;;;;;13.20;60.22;101138.31;4929002;28;119482;-79
2022/05/31 02:55:02;;;;;;;11.07;6.32;;;;;;;13.12;60.33;101128.81;4954730;28;120013;-79
2022/05/31 02:57:31;;;;;;;9.50;6.60;;;;;;;13.20;60.20;101146.59;4926660;28;121336;-78
2022/05/31 03:00:16;;;;;;;9.18;6.45;;;;;;;13.15;60.34;101136.16;4936843;28;120123;-79
2022/05/31 03:03:00;;;;;;;8.82;6.88;;;;;;;13.16;60.04;101143.19;4952006;28;119230;-79
2022/05/31 03:05:46;;;;;;;9.02;6.65;;;;;;;13.14;60.21;101143.66;4944830;28;119919;-78
2022/05/31 03:08:35;;;;;;;10.15;7.57;;;;;;;13.15;60.02;101144.41;4934421;28;119263;-78
2022/05/31 03:11:14;;;;;;;;;;;;;;;13.13;59.91;101146.88;4918539;28;119762;-79
2022/05/31 03:13:41;;;;;;;9.65;7.10;;;;;;;13.09;60.21;101130.50;4926570;28;119739;-79
2022/05/31 03:16:07;;;;;;;10.65;7.55;;;;;;;13.14;60.67;101142.88;4885850;28;119446;-79
2022/05/31 03:18:43;;;;;;;10.63;7.38;;;;;;;13.14;60.47;101142.88;4939143;28;119431;-79
2022/05/31 03:21:17;;;;;;;11.02;8.18;;;;;;;13.14;60.65;101138.13;4916764;28;119433;-79
2022/05/31 03:23:49;;;;;;;11.27;7.78;;;;;;;13.16;60.94;101141.19;4937578;28;119837;-79
2022/05/31 03:26:20;;;;;;;11.27;7.97;;;;;;;13.15;60.69;101136.91;4919894;28;119212;-79
2022/05/31 03:28:47;;;;;;;12.20;7.70;;;;;;;13.16;60.52;101132.94;4937477;28;119315;-78
2022/05/31 03:31:13;;;;;;;11.57;7.65;;;;;;;13.16;60.86;101135.69;4951388;28;119983;-78
2022/05/31 03:33:38;;;;;;;10.55;7.72;;;;;;;13.18;60.58;101138.03;4917609;28;119937;-79
2022/05/31 03:36:04;;;;;;;12.18;7.93;;;;;;;13.18;60.85;101135.25;4927865;28;119926;-78
2022/05/31 03:38:55;;;;;;;11.73;8.02;;;;;;;13.18;61.00;101138.78;4937312;28;119368;-79
2022/05/31 03:41:21;;;;;;;12.45;8.80;;;;;;;13.20;60.90;101136.34;4923987;28;120012;-79
2022/05/31 03:43:50;;;;;;;11.70;8.38;;;;;;;13.16;60.68;101123.91;4936820;28;120694;-78
2022/05/31 03:46:23;;;;;;;12.10;7.45;;;;;;;13.23;60.53;101140.16;4953321;28;119932;-78
2022/05/31 03:49:10;;;;;;;13.40;7.60;;;;;;;13.25;61.08;101126.72;4954609;28;120181;-79
2022/05/31 03:51:39;;;;;;;11.27;7.82;;;;;;;13.23;60.53;101133.88;4937317;28;119299;-79
2022/05/31 03:54:14;;;;;;;11.68;8.40;;;;;;;13.25;60.47;101137.75;4933115;28;119705;-79
2022/05/31 03:56:59;;;;;;;10.93;8.50;;;;;;;13.22;60.30;101127.63;4935088;28;119334;-79
2022/05/31 03:59:25;;;;;;;12.00;7.78;;;;;;;13.29;60.22;101123.81;4936765;28;119452;-79
2022/05/31 04:01:51;;;;;;;8.27;7.10;;;;;;;13.34;60.86;101134.97;4936644;28;119507;-78
2022/05/31 04:04:16;;;;;;;10.35;7.13;;;;;;;13.39;60.90;101131.63;4925110;28;119824;-78
2022/05/31 04:06:42;;;;;;;10.05;7.28;;;;;;;13.46;60.71;101136.03;4907260;28;120122;-79
2022/05/31 04:09:08;;;;;;;10.95;7.47;;;;;;;13.51;61.03;101129.94;4941696;28;119190;-79
2022/05/31 04:11:34;;;;;;;8.93;6.70;;;;;;;13.51;60.61;101127.19;4917541;28;119662;-79
2022/05/31 04:14:08;;;;;;;11.75;7.00;;;;;;;13.60;60.69;101135.44;4933197;28;120418;-79
2022/05/31 04:16:46;;;;;;;10.77;7.22;;;;;;;13.65;60.50;101140.34;4928799;28;120716;-78
2022/05/31 04:19:12;;;;;;;11.07;7.35;;;;;;;13.69;60.36;101137.41;4936891;28;120808;-78
2022/05/31 04:21:38;;;;;;;11.20;7.63;;;;;;;13.73;60.40;101135.31;4935492;28;119898;-79
2022/05/31 04:24:08;;;;;;;12.23;7.30;;;;;;;13.76;60.63;101131.63;4951934;28;119282;-79
2022/05/31 04:26:43;;;;;;;10.40;7.38;;;;;;;13.81;60.39;101139.25;4953498;28;119199;-79
2022/05/31 04:29:35;;;;;;;13.35;7.47;;;;;;;13.85;60.89;101134.34;4930200;28;118533;-78
2022/05/31 04:32:04;;;;;;;10.65;7.03;;;;;;;13.89;61.08;101145.97;4954511;28;119462;-79
2022/05/31 04:34:43;;;;;;;10.25;6.93;;;;;;;13.93;60.99;101141.06;4954534;28;120117;-79
2022/05/31 04:37:10;;;;;;;12.73;7.60;;;;;;;13.95;60.99;101141.38;4956822;28;119364;-79
2022/05/31 04:39:59;;;;;;;8.82;7.18;;;;;;;13.99;61.04;101144.00;4928903;28;119236;-79
2022/05/31 04:42:47;;;;;;;10.30;7.20;;;;;;;14.00;60.98;101143.53;4907021;28;119949;-79
2022/05/31 04:45:33;;;;;;;10.35;6.88;;;;;;;14.03;61.23;101136.31;4938253;28;119480;-79
2022/05/31 04:48:14;;;;;;;13.75;7.30;;;;;;;14.07;61.63;101142.44;4940782;28;119685;-79
2022/05/31 04:50:40;;;;;;;11.30;7.40;;;;;;;14.09;61.69;101137.22;4957114;28;119655;-79
2022/05/31 04:53:06;;;;;;;9.35;6.82;;;;;;;14.10;61.64;101136.75;4939713;28;119802;-79
2022/05/31 04:55:37;;;;;;;8.40;6.38;;;;;;;14.09;61.65;101132.47;4953902;28;119443;-78
2022/05/31 04:58:05;;;;;;;9.10;6.15;;;;;;;14.14;61.24;101134.59;4939855;28;119917;-79
2022/05/31 05:00:31;;;;;;;9.77;6.30;;;;;;;14.25;61.64;101147.16;4906907;28;119982;-79
2022/05/31 05:03:05;;;;;;;8.23;5.20;;;;;;;14.29;61.27;101145.00;4934581;28;120007;-79
2022/05/31 05:05:33;;;;;;;9.30;4.85;;;;;;;14.33;61.03;101145.59;4928212;28;119332;-79
2022/05/31 05:08:09;;;;;;;6.40;4.68;;;;;;;14.35;60.16;101132.84;4920104;28;119360;-79
2022/05/31 05:10:37;;;;;;;6.88;4.07;;;;;;;14.40;60.19;101139.72;4928696;28;120042;-79
2022/05/31 05:13:14;;;;;;;7.57;4.20;;;;;;;14.47;60.14;101144.19;4955355;28;119342;-79
2022/05/31 05:15:51;;;;;;;7.35;4.18;;;;;;;14.46;60.18;101132.41;4956668;28;119349;-78
2022/05/31 05:18:17;;;;;;;6.63;4.00;;;;;;;14.55;60.44;101129.59;4938753;28;119938;-79
2022/05/31 05:20:44;;;;;;;4.82;3.45;;;;;;;14.62;60.28;101137.53;4938211;28;119821;-79
2022/05/31 05:23:11;;;;;;;7.53;3.63;;;;;;;14.63;59.06;101128.00;4952136;28;119450;-79
2022/05/31 05:25:38;;;;;;;7.32;3.15;;;;;;;14.70;59.26;101127.69;4959850;28;119394;-79
2022/05/31 05:31:21;;;;;;;5.00;2.80;;;;;;;14.79;59.16;101137.16;4948512;28;120863;-79
2022/05/31 05:34:10;;;;;;;4.57;2.70;;;;;;;14.81;58.89;101132.69;4911448;28;120081;-79
2022/05/31 05:36:56;;;;;;;6.05;3.10;;;;;;;14.84;59.60;101123.47;4918608;28;120278;-79
2022/05/31 05:39:22;;;;;;;5.57;3.05;;;;;;;14.91;59.36;101133.41;4949476;28;119997;-79
2022/05/31 05:42:00;;;;;;;5.03;3.05;;;;;;;14.94;59.69;101143.53;4957045;28;119923;-78
2022/05/31 05:44:49;;;;;;;7.82;3.17;;;;;;;14.96;59.21;101136.28;4925112;28;119922;-78
2022/05/31 05:47:14;;;;;;;6.38;2.90;;;;;;;14.98;58.84;101133.06;4938870;28;119388;-79
2022/05/31 05:49:41;;;;;;;5.53;2.78;;;;;;;15.00;59.32;101136.13;4954661;28;119912;-79
2022/05/31 05:52:27;;;;;;;3.65;2.38;;;;;;;15.05;58.51;101138.97;4938250;28;120452;-79
2022/05/31 05:55:22;;;;;;;7.38;2.63;;;;;;;15.10;58.71;101134.03;4937405;28;119416;-78
2022/05/31 05:58:10;;;;;;;6.38;2.60;;;;;;;15.15;58.82;101141.72;4958342;28;119566;-79
2022/05/31 06:00:54;;;;;;;8.48;2.75;;;;;;;15.18;58.93;101138.00;4937869;28;119666;-78
2022/05/31 06:03:30;;;;;;;5.15;2.30;;;;;;;15.22;58.66;101136.56;4935358;28;119552;-79
2022/05/31 06:06:03;;;;;;;6.80;3.00;;;;;;;15.31;58.50;101138.50;4932447;28;119915;-79
2022/05/31 06:08:35;;;;;;;3.97;2.65;;;;;;;15.34;58.05;101132.03;4955008;28;119808;-79
2022/05/31 06:11:06;;;;;;;6.93;2.90;;;;;;;15.39;58.24;101136.16;4956200;28;119711;-79
2022/05/31 06:13:39;;;;;;;6.32;2.80;;;;;;;15.38;58.62;101135.41;4937453;28;119965;-79
2022/05/31 06:16:07;;;;;;;5.63;2.55;;;;;;;15.44;58.23;101138.28;4941262;28;119827;-79
2022/05/31 06:18:54;;;;;;;5.97;2.60;;;;;;;15.48;57.81;101138.84;4934367;28;119641;-79
2022/05/31 06:21:23;;;;;;;5.05;2.65;;;;;;;15.49;57.72;101135.59;4939668;28;119373;-79
2022/05/31 06:23:51;;;;;;;10.25;2.92;;;;;;;15.49;56.71;101132.84;4924094;28;120554;-79
2022/05/31 06:26:18;;;;;;;6.18;2.53;;;;;;;15.54;57.42;101146.00;4936591;28;120046;-79
2022/05/31 06:29:06;;;;;;;6.00;2.53;;;;;;;15.57;57.69;101144.28;4954394;28;119357;-79
2022/05/31 06:31:32;;;;;;;7.57;2.90;;;;;;;15.61;58.19;101139.38;4939997;28;119044;-79
2022/05/31 06:33:59;;;;;;;8.80;2.97;;;;;;;15.64;57.44;101139.19;4903906;28;120638;-79
2022/05/31 06:36:44;;;;;;;5.85;2.42;;;;;;;15.68;58.09;101141.78;4921718;28;119754;-79
2022/05/31 06:39:09;;;;;;;5.30;2.63;;;;;;;15.65;56.82;101129.66;4934878;28;119506;-79
2022/05/31 06:41:36;;;;;;;4.70;2.78;;;;;;;15.71;55.90;101138.06;4939097;28;119976;-79
2022/05/31 06:44:20;;;;;;;5.68;2.65;;;;;;;15.74;56.64;101147.41;4935498;28;119328;-79
2022/05/31 06:47:15;;;;;;;4.47;2.60;;;;;;;15.72;56.93;101142.34;4952157;28;119984;-79
2022/05/31 06:49:41;;;;;;;5.05;2.50;;;;;;;15.73;57.32;101132.81;4944430;28;119535;-79
2022/05/31 06:58:39;;;;;;;7.20;3.20;;;;;;;15.85;56.49;101136.53;4966716;28;119419;-79
2022/05/31 07:01:05;;;;;;;5.80;2.97;;;;;;;15.89;55.93;101146.19;4929485;28;118765;-79
2022/05/31 07:03:30;;;;;;;6.43;3.15;;;;;;;15.92;56.05;101148.00;4944883;28;121378;-79
2022/05/31 07:05:58;;;;;;;7.00;3.33;;;;;;;15.92;56.59;101142.47;4929272;28;119525;-79
2022/05/31 07:08:25;;;;;;;5.95;2.80;;;;;;;16.02;55.87;101147.91;4949916;28;119828;-79
2022/05/31 07:10:54;;;;;;;5.63;2.47;;;;;;;16.02;56.36;101142.38;4966278;28;119358;-79
2022/05/31 07:13:39;;;;;;;6.78;2.88;;;;;;;16.08;55.84;101146.00;4953202;28;119600;-79
2022/05/31 07:16:23;;;;;;;;;;;;;;;16.09;56.11;101141.97;4965318;28;120088;-79
2022/05/31 07:18:49;;;;;;;3.63;2.05;;;;;;;16.11;54.11;101148.59;4953754;28;119773;-79
2022/05/31 07:21:15;;;;;;;5.60;2.53;;;;;;;16.13;54.24;101145.34;4937678;28;119497;-79
2022/05/31 07:23:41;;;;;;;7.28;2.65;;;;;;;16.16;54.56;101133.31;4925497;28;120913;-79
2022/05/31 07:26:08;;;;;;;6.22;2.33;;;;;;;16.24;53.14;101135.22;4941049;28;119525;-79
2022/05/31 07:28:34;;;;;;;3.75;2.30;;;;;;;16.28;53.70;101129.47;4944525;28;120522;-79
2022/05/31 07:31:01;;;;;;;5.70;2.70;;;;;;;16.30;53.53;101127.00;4923575;28;119908;-79
2022/05/31 07:33:29;;;;;;;4.80;2.40;;;;;;;16.37;53.47;101121.09;4916657;28;122106;-79
2022/05/31 07:35:57;;;;;;;5.05;2.13;;;;;;;16.45;52.70;101121.44;4935610;28;119292;-79
2022/05/31 07:38:26;;;;;;;4.57;2.47;;;;;;;16.49;54.29;101135.84;4930750;28;119553;-79
2022/05/31 07:40:53;;;;;;;5.80;2.38;;;;;;;16.54;54.46;101135.94;4935190;28;119526;-78
2022/05/31 07:43:19;;;;;;;4.60;2.53;;;;;;;16.58;53.34;101122.66;4937950;28;119581;-78
2022/05/31 07:45:45;;;;;;;5.45;2.45;;;;;;;16.67;53.82;101126.59;4906111;28;119739;-79
2022/05/31 07:48:14;;;;;;;5.18;2.45;;;;;;;16.71;53.18;101125.13;4917851;28;120776;-78
2022/05/31 07:50:41;;;;;;;4.65;2.20;;;;;;;16.77;53.42;101130.75;4935192;28;120412;-78
2022/05/31 07:53:25;;;;;;;5.53;2.28;;;;;;;16.81;53.22;101132.09;4934882;28;119559;-79
2022/05/31 07:55:58;;;;;;;6.07;2.55;;;;;;;16.80;53.00;101125.03;4939969;28;119789;-79
2022/05/31 07:58:53;;;;;;;3.55;2.10;;;;;;;16.81;52.90;101125.78;4880643;28;119471;-79
2022/05/31 08:01:48;;;;;;;5.38;2.20;;;;;;;16.87;52.99;101126.63;4922200;28;119458;-79
2022/05/31 08:04:46;;;;;;;2.40;2.05;;;;;;;16.99;53.21;101119.19;4940706;28;119374;-79
2022/05/31 08:07:12;;;;;;;4.95;2.20;;;;;;;17.11;53.70;101116.09;4950792;28;119381;-79
2022/05/31 08:09:37;;;;;;;3.90;2.08;;;;;;;17.32;53.31;101124.41;4956463;28;119276;-79
2022/05/31 08:12:11;;;;;;;6.95;2.10;;;;;;;17.49;53.20;101128.88;4954767;28;119645;-79
2022/05/31 08:14:37;;;;;;;3.28;1.60;;;;;;;17.60;52.31;101119.94;4953397;28;119679;-79
2022/05/31 08:17:03;;;;;;;3.05;1.63;;;;;;;17.64;50.39;101120.47;4932620;28;121692;-79
2022/05/31 08:19:30;;;;;;;4.10;2.00;;;;;;;17.59;51.58;101114.88;4936874;28;119270;-79
2022/05/31 08:21:56;;;;;;;4.95;1.83;;;;;;;17.67;50.34;101118.72;4936502;28;119460;-78
2022/05/31 08:24:23;;;;;;;4.63;2.08;;;;;;;17.65;51.58;101121.25;4931930;28;122446;-79
2022/05/31 08:26:49;;;;;;;3.97;2.10;;;;;;;17.65;51.00;101113.69;4950027;28;119745;-79
2022/05/31 08:29:15;;;;;;;3.95;2.08;;;;;;;17.71;51.57;101117.28;4938128;28;119977;-79
2022/05/31 08:31:41;;;;;;;4.60;1.80;;;;;;;17.84;51.05;101116.94;4919751;28;121941;-79
2022/05/31 08:34:07;;;;;;;3.03;1.65;;;;;;;17.98;48.67;101124.38;4943435;28;120045;-79
2022/05/31 08:36:33;;;;;;;4.35;1.92;;;;;;;18.07;48.61;101112.34;4959489;28;119550;-78
2022/05/31 08:39:00;;;;;;;3.13;1.67;;;;;;;18.06;48.64;101108.03;4955557;28;119546;-79
2022/05/31 08:41:27;;;;;;;3.28;1.98;;;;;;;18.09;49.08;101118.16;4938027;28;119955;-79
2022/05/31 08:44:07;;;;;;;3.92;2.20;;;;;;;18.06;49.57;101124.69;4944682;28;119607;-79
2022/05/31 08:46:39;;;;;;;3.58;1.60;;;;;;;18.02;49.30;101121.38;4942888;28;119592;-80
2022/05/31 08:49:18;;;;;;;3.17;1.40;;;;;;;18.00;49.78;101121.13;4956752;28;119764;-79
2022/05/31 08:52:04;;;;;;;2.03;1.60;;;;;;;17.98;50.18;101112.50;4938448;28;121630;-79
2022/05/31 08:57:47;;;;;;;4.32;1.85;;;;;;;17.90;48.87;101108.66;4952206;28;119951;-79
2022/05/31 09:00:41;;;;;;;3.40;1.45;;;;;;;17.97;50.05;101113.75;4949170;28;119828;-79
2022/05/31 09:03:16;;;;;;;4.18;1.75;;;;;;;18.05;50.09;101112.06;4947935;28;120743;-79
2022/05/31 09:06:07;;;;;;;3.47;1.30;;;;;;;18.18;49.33;101111.66;4947538;28;119617;-79
2022/05/31 09:08:56;;;;;;;1.70;1.10;;;;;;;18.29;48.25;101115.28;4950644;28;119841;-80
2022/05/31 09:11:28;;;;;;;4.28;1.30;;;;;;;18.42;47.63;101109.31;4947726;28;119372;-80
2022/05/31 09:14:05;;;;;;;4.50;1.45;;;;;;;18.46;45.12;101101.53;4933847;28;121199;-80
2022/05/31 09:16:51;;;;;;;2.53;1.58;;;;;;;18.60;47.00;101108.94;4950999;28;119958;-80
2022/05/31 09:19:31;;;;;;;2.80;1.58;;;;;;;18.58;44.03;101102.34;4954795;28;121200;-79
2022/05/31 09:22:00;;;;;;;2.53;1.20;;;;;;;18.51;46.01;101102.81;4952548;28;120950;-79
2022/05/31 09:24:26;;;;;;;2.35;1.30;;;;;;;18.51;46.83;101108.38;4952758;28;119961;-80
2022/05/31 09:27:06;;;;;;;2.75;1.20;;;;;;;18.55;47.45;101111.69;4949662;28;119482;-79
2022/05/31 09:29:52;;;;;;;4.22;1.50;;;;;;;18.60;47.42;101103.38;4951377;28;119545;-80
2022/05/31 09:32:57;;;;;;;2.75;1.50;;;;;;;18.68;46.42;101104.47;4949535;28;119738;-79
2022/05/31 09:35:35;;;;;;;3.10;1.40;;;;;;;18.70;46.09;101110.31;4944742;28;119976;-80
2022/05/31 09:38:32;;;;;;;3.72;1.40;;;;;;;18.67;47.00;101105.72;4936016;28;119775;-79
2022/05/31 09:41:06;;;;;;;2.05;1.23;;;;;;;18.65;47.06;101102.69;4951958;28;120364;-79
2022/05/31 09:43:51;;;;;;;2.38;1.17;;;;;;;18.69;48.28;101102.44;4945262;28;120361;-79
2022/05/31 09:46:47;;;;;;;2.38;1.13;;;;;;;18.79;47.45;101094.69;4954106;28;119775;-80
2022/05/31 09:49:36;;;;;;;3.70;1.30;;;;;;;18.91;48.15;101096.25;4953038;28;120657;-79
2022/05/31 09:52:04;;;;;;;2.17;1.30;;;;;;;18.96;48.64;101082.38;4951374;28;119829;-79
2022/05/31 09:58:12;;;;;;;3.22;1.10;;;;;;;19.14;46.92;101092.28;4881317;28;119889;-80
2022/05/31 10:01:26;;;;;;;2.83;1.27;;;;;;;19.19;46.67;101088.03;4891004;28;119565;-79
2022/05/31 10:04:31;;;;;;;3.38;1.55;;;;;;;19.22;47.55;101081.47;4952076;28;119349;-79
2022/05/31 10:07:03;;;;;;;2.38;1.15;;;;;;;19.13;45.59;101079.66;4935191;28;119463;-79
2022/05/31 10:09:34;;;;;;;3.67;1.30;;;;;;;19.14;46.26;101088.75;4959680;28;120118;-79
2022/05/31 10:12:11;;;;;;;2.08;1.10;;;;;;;19.02;46.34;101074.06;4963624;28;119626;-79
2022/05/31 10:14:41;;;;;;;2.75;1.23;;;;;;;19.00;44.48;101088.47;4971324;28;119307;-79
2022/05/31 10:17:34;;;;;;;3.40;1.15;;;;;;;18.93;45.17;101080.59;4958909;28;119553;-79
2022/05/31 10:20:25;;;;;;;3.40;1.30;;;;;;;18.87;47.06;101074.25;4961099;28;120059;-80
2022/05/31 10:23:15;;;;;;;2.08;1.20;;;;;;;18.85;46.71;101081.56;4952435;28;120157;-79
2022/05/31 10:26:00;;;;;;;2.70;1.13;;;;;;;18.82;47.24;101077.75;4968263;28;121370;-80
2022/05/31 10:28:53;;;;;;;2.60;1.30;;;;;;;18.81;46.30;101079.03;4942573;28;120313;-80
2022/05/31 10:31:35;;;;;;;3.75;1.23;;;;;;;18.77;44.99;101078.50;4928787;28;119539;-79
2022/05/31 10:34:05;;;;;;;2.22;1.10;;;;;;;18.71;46.70;101072.16;4935697;28;120035;-79
2022/05/31 10:36:52;;;;;;;2.70;1.50;;;;;;;18.69;47.64;101072.66;4944127;28;119510;-79
2022/05/31 10:39:22;;;;;;;2.33;1.30;;;;;;;18.65;45.04;101074.13;4929894;28;119640;-79
2022/05/31 10:41:52;;;;;;;2.53;1.33;;;;;;;18.62;47.34;101080.66;4937524;28;120011;-79
2022/05/31 10:44:33;;;;;;;3.10;1.40;;;;;;;18.58;45.42;101085.69;4939134;28;119806;-79
2022/05/31 10:47:08;;;;;;;2.47;0.98;;;;;;;18.53;46.09;101076.06;4944090;28;119368;-79
2022/05/31 10:49:35;;;;;;;2.38;1.00;;;;;;;18.51;46.60;101072.25;4952154;28;119807;-79
2022/05/31 10:52:09;;;;;;;2.90;1.30;;;;;;;18.49;47.53;101085.88;4952929;28;119903;-79
2022/05/31 10:54:53;;;;;;;2.47;1.20;;;;;;;18.46;46.25;101079.31;4935637;28;119748;-79
2022/05/31 10:57:29;;;;;;;2.97;1.27;;;;;;;18.37;47.51;101071.91;4933997;28;119588;-79
2022/05/31 11:00:04;;;;;;;2.75;1.30;;;;;;;18.47;47.75;101074.53;4955237;28;119504;-79
2022/05/31 11:02:55;;;;;;;2.35;1.70;;;;;;;18.55;49.91;101083.91;4935164;28;119910;-80
2022/05/31 11:05:57;;;;;;;3.90;1.23;;;;;;;18.56;47.89;101072.28;4939021;28;120190;-81
2022/05/31 11:11:51;;;;;;;2.65;1.55;;;;;;;18.54;46.83;101079.59;4921176;28;119566;-79
2022/05/31 11:14:28;;;;;;;4.38;1.30;;;;;;;18.50;47.15;101071.50;4952888;28;119525;-79
2022/05/31 11:17:22;;;;;;;3.45;1.55;;;;;;;18.44;46.98;101070.69;4938592;28;119444;-79
2022/05/31 11:20:07;;;;;;;3.22;1.40;;;;;;;18.50;48.44;101073.53;4961343;28;120111;-79
2022/05/31 11:22:41;;;;;;;1.88;1.33;;;;;;;18.49;47.82;101069.22;4971188;28;119301;-80
2022/05/31 11:25:24;;;;;;;2.10;1.50;;;;;;;18.49;46.79;101066.44;4960698;28;119402;-80
2022/05/31 11:28:01;;;;;;;1.40;1.27;;;;;;;18.48;47.56;101064.94;4949658;28;119667;-80
2022/05/31 11:30:33;;;;;;;3.75;1.30;;;;;;;18.50;49.13;101060.41;4942498;28;119798;-80
2022/05/31 11:33:14;;;;;;;3.55;1.50;;;;;;;18.53;48.74;101064.97;4960815;28;122172;-80
2022/05/31 11:36:07;;;;;;;4.70;1.40;;;;;;;18.61;49.21;101056.91;4973797;28;119529;-80
2022/05/31 11:38:50;;;;;;;5.18;1.55;;;;;;;18.67;46.91;101055.69;4963894;28;119427;-80
2022/05/31 11:41:43;;;;;;;1.42;1.20;;;;;;;18.72;46.61;101051.44;4952959;28;119413;-80
2022/05/31 11:44:19;;;;;;;4.90;1.90;;;;;;;18.73;49.45;101046.66;4956695;28;119211;-79
2022/05/31 11:46:58;;;;;;;1.58;1.20;;;;;;;18.70;48.50;101040.84;4961028;28;119408;-80
2022/05/31 11:49:42;;;;;;;3.33;1.10;;;;;;;18.76;46.96;101040.84;4957075;28;119842;-79
2022/05/31 11:52:31;;;;;;;5.85;1.55;;;;;;;18.79;46.96;101045.41;4939641;28;119856;-80
2022/05/31 11:55:26;;;;;;;2.35;1.30;;;;;;;18.77;46.26;101050.72;4957088;28;120278;-79
2022/05/31 11:58:06;;;;;;;2.42;1.30;;;;;;;18.77;47.09;101050.72;4937107;28;119862;-80
2022/05/31 12:00:42;;;;;;;3.65;1.40;;;;;;;18.78;47.66;101052.22;4932626;28;119822;-79
2022/05/31 12:03:15;;;;;;;1.95;1.60;;;;;;;18.75;47.90;101039.34;4945734;28;120822;-79
2022/05/31 12:05:47;;;;;;;1.90;1.20;;;;;;;18.76;48.26;101049.19;4953564;28;119388;-80
2022/05/31 12:08:25;;;;;;;2.17;1.63;;;;;;;18.76;49.02;101048.44;4961113;28;120846;-80
2022/05/31 12:10:53;;;;;;;2.10;1.48;;;;;;;18.73;48.11;101041.84;4953858;28;119504;-79